sensor_id;sensor_type;location;lat;lon;timestamp;pressure;altitude;pressure_sealevel;temperature;humidity
7940;BME280;4015;48.888;9.226;2023-05-08T00:01:08;159108.88;;;15.38;100.00
7940;BME280;4015;48.888;9.226;2023-05-08T00:03:33;159094.78;;;15.33;100.00
7940;BME280;4015;48.888;9.226;2023-05-08T00:05:58;159108.88;;;15.38;100.00
7940;BME280;4015;48.888;9.226;2023-05-08T00:08:24;159105.06;;;15.37;100.00
7940;BME280;4015;48.888;9.226;2023-05-08T00:10:49;159121.72;;;15.44;100.00
7940;BME280;4015;48.888;9.226;2023-05-08T00:13:15;159117.88;;;15.42;100.00
7940;BME280;4015;48.888;9.226;2023-05-08T00:15:40;159112.78;;;15.40;100.00
7940;BME280;4015;48.888;9.226;2023-05-08T00:18:05;159102.50;;;15.36;100.00
7940;BME280;4015;48.888;9.226;2023-05-08T00:20:31;159110.16;;;15.39;100.00
7940;BME280;4015;48.888;9.226;2023-05-08T00:22:56;159117.88;;;15.42;100.00
7940;BME280;4015;48.888;9.226;2023-05-08T00:25:22;159107.59;;;15.38;100.00
7940;BME280;4015;48.888;9.226;2023-05-08T00:27:47;159098.66;;;15.34;100.00
7940;BME280;4015;48.888;9.226;2023-05-08T00:30:13;159084.56;;;15.29;100.00
7940;BME280;4015;48.888;9.226;2023-05-08T00:32:38;159096.06;;;15.33;100.00
7940;BME280;4015;48.888;9.226;2023-05-08T00:35:04;159099.94;;;15.35;100.00
7940;BME280;4015;48.888;9.226;2023-05-08T00:37:29;159087.13;;;15.30;100.00
7940;BME280;4015;48.888;9.226;2023-05-08T00:39:55;159087.13;;;15.30;100.00
7940;BME280;4015;48.888;9.226;2023-05-08T00:42:20;159108.88;;;15.38;100.00
7940;BME280;4015;48.888;9.226;2023-05-08T00:44:45;159107.59;;;15.38;100.00
7940;BME280;4015;48.888;9.226;2023-05-08T00:47:11;159090.97;;;15.31;100.00
7940;BME280;4015;48.888;9.226;2023-05-08T00:49:37;159093.50;;;15.32;100.00
7940;BME280;4015;48.888;9.226;2023-05-08T00:52:04;159090.97;;;15.31;100.00
7940;BME280;4015;48.888;9.226;2023-05-08T00:54:33;159084.56;;;15.29;100.00
7940;BME280;4015;48.888;9.226;2023-05-08T00:56:59;159084.56;;;15.29;100.00
7940;BME280;4015;48.888;9.226;2023-05-08T00:59:25;159125.53;;;15.45;100.00
7940;BME280;4015;48.888;9.226;2023-05-08T01:01:51;159119.16;;;15.43;99.69
7940;BME280;4015;48.888;9.226;2023-05-08T01:04:19;159076.88;;;15.26;100.00
7940;BME280;4015;48.888;9.226;2023-05-08T01:06:45;159066.66;;;15.22;100.00
7940;BME280;4015;48.888;9.226;2023-05-08T01:09:11;159096.06;;;15.33;100.00
7940;BME280;4015;48.888;9.226;2023-05-08T01:11:43;159106.34;;;15.37;100.00
7940;BME280;4015;48.888;9.226;2023-05-08T01:25:43;159079.41;;;15.27;100.00
7940;BME280;4015;48.888;9.226;2023-05-08T01:31:02;159094.78;;;15.33;100.00
7940;BME280;4015;48.888;9.226;2023-05-08T01:33:54;159103.78;;;15.36;100.00
7940;BME280;4015;48.888;9.226;2023-05-08T01:36:40;159108.88;;;15.38;100.00
7940;BME280;4015;48.888;9.226;2023-05-08T01:39:16;159105.06;;;15.37;100.00
7940;BME280;4015;48.888;9.226;2023-05-08T01:41:50;159102.50;;;15.36;100.00
7940;BME280;4015;48.888;9.226;2023-05-08T01:44:23;159107.59;;;15.38;100.00
7940;BME280;4015;48.888;9.226;2023-05-08T01:46:52;159102.50;;;15.36;100.00
7940;BME280;4015;48.888;9.226;2023-05-08T01:49:26;159092.22;;;15.32;100.00
7940;BME280;4015;48.888;9.226;2023-05-08T01:51:58;159116.59;;;15.42;100.00
7940;BME280;4015;48.888;9.226;2023-05-08T01:54:27;159129.41;;;15.47;100.00
7940;BME280;4015;48.888;9.226;2023-05-08T01:56:56;159125.53;;;15.45;100.00
7940;BME280;4015;48.888;9.226;2023-05-08T01:59:24;159108.88;;;15.38;100.00
7940;BME280;4015;48.888;9.226;2023-05-08T02:01:53;159112.78;;;15.40;100.00
7940;BME280;4015;48.888;9.226;2023-05-08T02:04:21;159088.41;;;15.30;100.00
7940;BME280;4015;48.888;9.226;2023-05-08T02:06:49;159076.88;;;15.26;100.00
7940;BME280;4015;48.888;9.226;2023-05-08T02:09:15;159094.78;;;15.33;100.00
7940;BME280;4015;48.888;9.226;2023-05-08T02:11:42;159102.50;;;15.36;100.00
7940;BME280;4015;48.888;9.226;2023-05-08T02:14:10;159126.81;;;15.46;100.00
7940;BME280;4015;48.888;9.226;2023-05-08T02:16:38;159110.16;;;15.39;100.00
7940;BME280;4015;48.888;9.226;2023-05-08T02:19:06;159102.50;;;15.36;100.00
7940;BME280;4015;48.888;9.226;2023-05-08T02:21:33;159099.94;;;15.35;100.00
7940;BME280;4015;48.888;9.226;2023-05-08T02:24:00;159092.22;;;15.32;100.00
7940;BME280;4015;48.888;9.226;2023-05-08T02:26:27;159121.72;;;15.44;100.00
7940;BME280;4015;48.888;9.226;2023-05-08T02:28:54;159101.22;;;15.35;100.00
7940;BME280;4015;48.888;9.226;2023-05-08T02:31:21;159111.44;;;15.39;100.00
7940;BME280;4015;48.888;9.226;2023-05-08T02:33:47;159108.88;;;15.38;100.00
7940;BME280;4015;48.888;9.226;2023-05-08T02:36:15;159098.66;;;15.34;100.00
7940;BME280;4015;48.888;9.226;2023-05-08T02:38:43;159087.13;;;15.30;100.00
7940;BME280;4015;48.888;9.226;2023-05-08T02:41:11;159088.41;;;15.30;100.00
7940;BME280;4015;48.888;9.226;2023-05-08T02:43:37;159052.53;;;15.16;100.00
7940;BME280;4015;48.888;9.226;2023-05-08T02:51:24;159047.41;;;15.14;100.00
7940;BME280;4015;48.888;9.226;2023-05-08T02:53:56;159042.28;;;15.12;100.00
7940;BME280;4015;48.888;9.226;2023-05-08T02:56:49;159042.28;;;15.12;100.00
7940;BME280;4015;48.888;9.226;2023-05-08T02:59:22;159042.28;;;15.12;100.00
7940;BME280;4015;48.888;9.226;2023-05-08T03:02:05;159046.13;;;15.14;100.00
7940;BME280;4015;48.888;9.226;2023-05-08T03:04:36;159057.66;;;15.18;100.00
7940;BME280;4015;48.888;9.226;2023-05-08T03:07:05;159042.28;;;15.12;100.00
7940;BME280;4015;48.888;9.226;2023-05-08T03:09:38;159060.22;;;15.19;100.00
7940;BME280;4015;48.888;9.226;2023-05-08T03:12:19;159074.31;;;15.25;100.00
7940;BME280;4015;48.888;9.226;2023-05-08T03:17:20;159117.88;;;15.42;100.00
7940;BME280;4015;48.888;9.226;2023-05-08T03:19:49;159106.34;;;15.37;100.00
7940;BME280;4015;48.888;9.226;2023-05-08T03:22:18;159103.78;;;15.36;100.00
7940;BME280;4015;48.888;9.226;2023-05-08T03:24:44;159102.50;;;15.36;100.00
7940;BME280;4015;48.888;9.226;2023-05-08T03:27:12;159103.78;;;15.36;100.00
7940;BME280;4015;48.888;9.226;2023-05-08T03:29:39;159107.59;;;15.38;100.00
7940;BME280;4015;48.888;9.226;2023-05-08T03:32:06;159112.78;;;15.40;100.00
7940;BME280;4015;48.888;9.226;2023-05-08T03:34:32;159098.66;;;15.34;100.00
7940;BME280;4015;48.888;9.226;2023-05-08T03:36:58;159102.50;;;15.36;100.00
7940;BME280;4015;48.888;9.226;2023-05-08T03:39:24;159099.94;;;15.35;100.00
7940;BME280;4015;48.888;9.226;2023-05-08T03:41:49;159089.69;;;15.31;100.00
7940;BME280;4015;48.888;9.226;2023-05-08T03:44:16;159090.97;;;15.31;100.00
7940;BME280;4015;48.888;9.226;2023-05-08T03:46:43;159078.13;;;15.26;100.00
7940;BME280;4015;48.888;9.226;2023-05-08T03:49:09;159090.97;;;15.31;100.00
7940;BME280;4015;48.888;9.226;2023-05-08T03:51:39;159097.41;;;15.34;100.00
7940;BME280;4015;48.888;9.226;2023-05-08T03:54:04;159084.56;;;15.29;100.00
7940;BME280;4015;48.888;9.226;2023-05-08T03:56:30;159085.84;;;15.29;100.00
7940;BME280;4015;48.888;9.226;2023-05-08T03:59:03;159065.38;;;15.21;100.00
7940;BME280;4015;48.888;9.226;2023-05-08T04:02:08;159065.38;;;15.21;100.00
7940;BME280;4015;48.888;9.226;2023-05-08T04:04:39;159066.66;;;15.22;100.00
7940;BME280;4015;48.888;9.226;2023-05-08T04:07:13;159078.13;;;15.26;100.00
7940;BME280;4015;48.888;9.226;2023-05-08T04:10:08;159087.13;;;15.30;100.00
7940;BME280;4015;48.888;9.226;2023-05-08T04:15:18;159078.13;;;15.26;100.00
7940;BME280;4015;48.888;9.226;2023-05-08T04:17:47;159078.13;;;15.26;100.00
7940;BME280;4015;48.888;9.226;2023-05-08T04:20:16;159106.34;;;15.37;100.00
7940;BME280;4015;48.888;9.226;2023-05-08T04:22:44;159111.44;;;15.39;100.00
7940;BME280;4015;48.888;9.226;2023-05-08T04:25:11;159120.44;;;15.43;100.00
7940;BME280;4015;48.888;9.226;2023-05-08T04:27:39;159123.00;;;15.44;100.00
7940;BME280;4015;48.888;9.226;2023-05-08T04:30:07;159131.97;;;15.48;100.00
7940;BME280;4015;48.888;9.226;2023-05-08T04:32:34;159135.81;;;15.49;100.00
7940;BME280;4015;48.888;9.226;2023-05-08T04:34:59;159137.09;;;15.50;100.00
7940;BME280;4015;48.888;9.226;2023-05-08T04:37:26;159151.19;;;15.55;100.00
7940;BME280;4015;48.888;9.226;2023-05-08T04:39:52;159137.09;;;15.50;100.00
7940;BME280;4015;48.888;9.226;2023-05-08T04:42:18;159140.91;;;15.51;100.00
7940;BME280;4015;48.888;9.226;2023-05-08T04:44:44;159133.25;;;15.48;100.00
7940;BME280;4015;48.888;9.226;2023-05-08T04:47:09;159110.16;;;15.39;100.00
7940;BME280;4015;48.888;9.226;2023-05-08T04:49:34;159071.75;;;15.24;100.00
7940;BME280;4015;48.888;9.226;2023-05-08T04:52:00;159105.06;;;15.37;100.00
7940;BME280;4015;48.888;9.226;2023-05-08T04:54:26;159119.16;;;15.43;100.00
7940;BME280;4015;48.888;9.226;2023-05-08T04:56:51;159129.41;;;15.47;100.00
7940;BME280;4015;48.888;9.226;2023-05-08T04:59:16;159116.59;;;15.42;100.00
7940;BME280;4015;48.888;9.226;2023-05-08T05:01:45;159102.50;;;15.36;100.00
7940;BME280;4015;48.888;9.226;2023-05-08T05:04:11;159102.50;;;15.36;100.00
7940;BME280;4015;48.888;9.226;2023-05-08T05:06:36;159073.03;;;15.24;100.00
7940;BME280;4015;48.888;9.226;2023-05-08T05:09:01;159078.13;;;15.26;100.00
7940;BME280;4015;48.888;9.226;2023-05-08T05:11:27;159076.88;;;15.26;100.00
7940;BME280;4015;48.888;9.226;2023-05-08T05:13:53;159094.78;;;15.33;100.00
7940;BME280;4015;48.888;9.226;2023-05-08T05:16:18;159116.59;;;15.42;100.00
7940;BME280;4015;48.888;9.226;2023-05-08T05:18:43;159079.41;;;15.27;100.00
7940;BME280;4015;48.888;9.226;2023-05-08T05:21:08;159105.06;;;15.37;100.00
7940;BME280;4015;48.888;9.226;2023-05-08T05:23:35;159098.66;;;15.34;100.00
7940;BME280;4015;48.888;9.226;2023-05-08T05:26:01;159112.78;;;15.40;100.00
7940;BME280;4015;48.888;9.226;2023-05-08T05:28:26;159092.22;;;15.32;100.00
7940;BME280;4015;48.888;9.226;2023-05-08T05:30:52;159106.34;;;15.37;100.00
7940;BME280;4015;48.888;9.226;2023-05-08T05:33:17;159119.16;;;15.43;100.00
7940;BME280;4015;48.888;9.226;2023-05-08T05:35:43;159131.97;;;15.48;100.00
7940;BME280;4015;48.888;9.226;2023-05-08T05:38:08;159092.22;;;15.32;100.00
7940;BME280;4015;48.888;9.226;2023-05-08T05:40:33;159111.44;;;15.39;100.00
7940;BME280;4015;48.888;9.226;2023-05-08T05:42:59;159117.88;;;15.42;100.00
7940;BME280;4015;48.888;9.226;2023-05-08T05:45:24;159148.63;;;15.54;100.00
7940;BME280;4015;48.888;9.226;2023-05-08T05:47:50;159158.84;;;15.58;100.00
7940;BME280;4015;48.888;9.226;2023-05-08T05:50:18;159161.44;;;15.59;100.00
7940;BME280;4015;48.888;9.226;2023-05-08T05:52:44;159148.63;;;15.54;100.00
7940;BME280;4015;48.888;9.226;2023-05-08T05:55:10;159138.38;;;15.50;100.00
7940;BME280;4015;48.888;9.226;2023-05-08T05:57:35;159129.41;;;15.47;100.00
7940;BME280;4015;48.888;9.226;2023-05-08T06:00:03;159138.38;;;15.50;100.00
7940;BME280;4015;48.888;9.226;2023-05-08T06:02:28;159117.88;;;15.42;100.00
7940;BME280;4015;48.888;9.226;2023-05-08T06:04:54;159140.91;;;15.51;100.00
7940;BME280;4015;48.888;9.226;2023-05-08T06:07:19;159137.09;;;15.50;100.00
7940;BME280;4015;48.888;9.226;2023-05-08T06:09:47;159107.59;;;15.38;100.00
7940;BME280;4015;48.888;9.226;2023-05-08T06:12:15;159099.94;;;15.35;100.00
7940;BME280;4015;48.888;9.226;2023-05-08T06:14:40;159079.41;;;15.27;100.00
7940;BME280;4015;48.888;9.226;2023-05-08T06:17:05;159079.41;;;15.27;100.00
7940;BME280;4015;48.888;9.226;2023-05-08T06:19:31;159119.16;;;15.43;100.00
7940;BME280;4015;48.888;9.226;2023-05-08T06:21:56;159126.81;;;15.46;100.00
7940;BME280;4015;48.888;9.226;2023-05-08T06:24:21;159130.69;;;15.47;100.00
7940;BME280;4015;48.888;9.226;2023-05-08T06:26:47;159133.25;;;15.48;100.00
7940;BME280;4015;48.888;9.226;2023-05-08T06:29:14;159110.16;;;15.39;100.00
7940;BME280;4015;48.888;9.226;2023-05-08T06:31:39;159165.28;;;15.61;100.00
7940;BME280;4015;48.888;9.226;2023-05-08T06:34:04;159149.91;;;15.55;100.00
7940;BME280;4015;48.888;9.226;2023-05-08T06:36:30;159151.19;;;15.55;100.00
7940;BME280;4015;48.888;9.226;2023-05-08T06:38:55;159170.44;;;15.63;100.00
7940;BME280;4015;48.888;9.226;2023-05-08T06:41:21;159170.44;;;15.63;100.00
7940;BME280;4015;48.888;9.226;2023-05-08T06:43:46;159187.09;;;15.70;100.00
7940;BME280;4015;48.888;9.226;2023-05-08T06:46:12;159180.72;;;15.67;100.00
7940;BME280;4015;48.888;9.226;2023-05-08T06:48:37;159198.66;;;15.74;100.00
7940;BME280;4015;48.888;9.226;2023-05-08T06:51:02;159235.78;;;15.89;100.00
7940;BME280;4015;48.888;9.226;2023-05-08T06:53:29;159264.00;;;16.00;100.00
7940;BME280;4015;48.888;9.226;2023-05-08T06:55:54;159256.31;;;15.97;100.00
7940;BME280;4015;48.888;9.226;2023-05-08T06:58:21;159231.97;;;15.87;100.00
7940;BME280;4015;48.888;9.226;2023-05-08T07:00:47;159248.63;;;15.94;100.00
7940;BME280;4015;48.888;9.226;2023-05-08T07:03:12;159267.84;;;16.02;100.00
7940;BME280;4015;48.888;9.226;2023-05-08T07:05:38;159261.44;;;15.99;100.00
7940;BME280;4015;48.888;9.226;2023-05-08T07:08:03;159257.59;;;15.98;100.00
7940;BME280;4015;48.888;9.226;2023-05-08T07:10:28;159265.28;;;16.01;100.00
7940;BME280;4015;48.888;9.226;2023-05-08T07:12:54;159273.00;;;16.04;100.00
7940;BME280;4015;48.888;9.226;2023-05-08T07:15:19;159264.00;;;16.00;100.00
7940;BME280;4015;48.888;9.226;2023-05-08T07:17:46;159269.09;;;16.02;100.00
7940;BME280;4015;48.888;9.226;2023-05-08T07:20:11;159269.09;;;16.02;100.00
7940;BME280;4015;48.888;9.226;2023-05-08T07:22:36;159264.00;;;16.00;100.00
7940;BME280;4015;48.888;9.226;2023-05-08T07:25:02;159258.88;;;15.98;98.80
7940;BME280;4015;48.888;9.226;2023-05-08T07:27:27;159276.81;;;16.05;99.21
7940;BME280;4015;48.888;9.226;2023-05-08T07:29:53;159278.09;;;16.06;99.15
7940;BME280;4015;48.888;9.226;2023-05-08T07:32:18;159338.34;;;16.30;98.69
7940;BME280;4015;48.888;9.226;2023-05-08T07:34:43;159367.84;;;16.41;97.35
7940;BME280;4015;48.888;9.226;2023-05-08T07:37:09;159397.34;;;16.53;97.39
7940;BME280;4015;48.888;9.226;2023-05-08T07:39:34;159444.81;;;16.72;95.76
7940;BME280;4015;48.888;9.226;2023-05-08T07:42:00;159512.78;;;16.99;95.71
7940;BME280;4015;48.888;9.226;2023-05-08T07:44:25;159558.94;;;17.17;94.62
7940;BME280;4015;48.888;9.226;2023-05-08T07:46:51;159591.00;;;17.30;92.87
7940;BME280;4015;48.888;9.226;2023-05-08T07:49:16;159692.31;;;17.70;91.98
7940;BME280;4015;48.888;9.226;2023-05-08T07:51:41;159684.66;;;17.67;90.36
7940;BME280;4015;48.888;9.226;2023-05-08T07:54:07;159693.59;;;17.71;90.43
7940;BME280;4015;48.888;9.226;2023-05-08T07:56:33;159764.25;;;17.99;90.66
7940;BME280;4015;48.888;9.226;2023-05-08T07:58:58;159769.34;;;18.01;88.67
7940;BME280;4015;48.888;9.226;2023-05-08T08:01:23;159795.03;;;18.11;88.33
7940;BME280;4015;48.888;9.226;2023-05-08T08:03:49;159827.13;;;18.24;87.95
7940;BME280;4015;48.888;9.226;2023-05-08T08:06:14;159868.16;;;18.40;86.10
7940;BME280;4015;48.888;9.226;2023-05-08T08:08:40;159789.88;;;18.09;88.50
7940;BME280;4015;48.888;9.226;2023-05-08T08:11:05;159845.06;;;18.31;88.05
7940;BME280;4015;48.888;9.226;2023-05-08T08:13:31;159879.72;;;18.45;86.11
7940;BME280;4015;48.888;9.226;2023-05-08T08:15:58;159945.22;;;18.71;87.83
7940;BME280;4015;48.888;9.226;2023-05-08T08:18:23;159990.16;;;18.89;83.91
7940;BME280;4015;48.888;9.226;2023-05-08T08:20:48;159946.50;;;18.71;85.30
7940;BME280;4015;48.888;9.226;2023-05-08T08:23:14;159922.09;;;18.62;85.45
7940;BME280;4015;48.888;9.226;2023-05-08T08:25:39;159879.72;;;18.45;86.20
7940;BME280;4015;48.888;9.226;2023-05-08T08:28:04;159888.72;;;18.48;84.13
7940;BME280;4015;48.888;9.226;2023-05-08T08:30:30;159900.25;;;18.53;85.42
7940;BME280;4015;48.888;9.226;2023-05-08T08:32:55;159929.78;;;18.65;86.31
7940;BME280;4015;48.888;9.226;2023-05-08T08:35:20;159923.38;;;18.62;86.26
7940;BME280;4015;48.888;9.226;2023-05-08T08:37:50;159879.72;;;18.45;85.33
7940;BME280;4015;48.888;9.226;2023-05-08T08:40:16;159901.53;;;18.53;85.69
7940;BME280;4015;48.888;9.226;2023-05-08T08:42:41;159879.72;;;18.45;85.30
7940;BME280;4015;48.888;9.226;2023-05-08T08:45:07;159863.03;;;18.38;85.35
7940;BME280;4015;48.888;9.226;2023-05-08T08:47:34;159925.94;;;18.63;86.05
7940;BME280;4015;48.888;9.226;2023-05-08T08:50:07;159925.94;;;18.63;84.17
7940;BME280;4015;48.888;9.226;2023-05-08T08:52:49;159951.66;;;18.73;84.56
7940;BME280;4015;48.888;9.226;2023-05-08T08:55:17;159977.31;;;18.83;82.11
7940;BME280;4015;48.888;9.226;2023-05-08T08:58:11;160026.09;;;19.03;83.05
7940;BME280;4015;48.888;9.226;2023-05-08T09:00:39;160045.34;;;19.10;81.78
7940;BME280;4015;48.888;9.226;2023-05-08T09:03:05;160082.59;;;19.25;84.55
7940;BME280;4015;48.888;9.226;2023-05-08T09:05:34;160017.13;;;18.99;81.92
7940;BME280;4015;48.888;9.226;2023-05-08T09:08:00;160083.88;;;19.26;82.03
7940;BME280;4015;48.888;9.226;2023-05-08T09:10:25;160136.50;;;19.47;82.16
7940;BME280;4015;48.888;9.226;2023-05-08T09:12:50;160144.25;;;19.50;80.93
7940;BME280;4015;48.888;9.226;2023-05-08T09:15:16;160131.41;;;19.45;81.86
7940;BME280;4015;48.888;9.226;2023-05-08T09:17:41;160145.53;;;19.50;83.31
7940;BME280;4015;48.888;9.226;2023-05-08T09:20:08;160172.50;;;19.61;81.63
7940;BME280;4015;48.888;9.226;2023-05-08T09:22:36;160114.72;;;19.38;80.51
7940;BME280;4015;48.888;9.226;2023-05-08T09:25:03;160112.16;;;19.37;81.29
7940;BME280;4015;48.888;9.226;2023-05-08T09:27:30;160117.25;;;19.39;81.86
7940;BME280;4015;48.888;9.226;2023-05-08T09:30:00;160185.38;;;19.66;80.30
7940;BME280;4015;48.888;9.226;2023-05-08T09:32:27;160154.50;;;19.54;79.10
7940;BME280;4015;48.888;9.226;2023-05-08T09:34:53;160072.31;;;19.21;81.85
7940;BME280;4015;48.888;9.226;2023-05-08T09:37:18;160131.41;;;19.45;79.61
7940;BME280;4015;48.888;9.226;2023-05-08T09:39:44;160123.66;;;19.41;80.08
7940;BME280;4015;48.888;9.226;2023-05-08T09:42:12;160082.59;;;19.25;80.62
7940;BME280;4015;48.888;9.226;2023-05-08T09:44:51;160126.28;;;19.43;81.56
7940;BME280;4015;48.888;9.226;2023-05-08T09:47:19;160114.72;;;19.38;82.39
7940;BME280;4015;48.888;9.226;2023-05-08T09:52:21;160146.81;;;19.51;80.03
7940;BME280;4015;48.888;9.226;2023-05-08T09:54:47;160142.97;;;19.49;79.82
7940;BME280;4015;48.888;9.226;2023-05-08T09:57:13;160144.25;;;19.50;80.40
7940;BME280;4015;48.888;9.226;2023-05-08T09:59:38;160180.25;;;19.64;79.22
7940;BME280;4015;48.888;9.226;2023-05-08T10:02:09;160087.72;;;19.27;81.08
7940;BME280;4015;48.888;9.226;2023-05-08T10:04:35;160140.34;;;19.48;81.70
7940;BME280;4015;48.888;9.226;2023-05-08T10:07:01;160142.97;;;19.49;79.58
7940;BME280;4015;48.888;9.226;2023-05-08T10:09:27;160145.53;;;19.50;80.70
7940;BME280;4015;48.888;9.226;2023-05-08T10:11:53;160137.78;;;19.47;80.34
7940;BME280;4015;48.888;9.226;2023-05-08T10:14:22;160122.38;;;19.41;79.85
7940;BME280;4015;48.888;9.226;2023-05-08T10:16:52;160137.78;;;19.47;82.09
7940;BME280;4015;48.888;9.226;2023-05-08T10:19:20;160171.22;;;19.60;80.37
7940;BME280;4015;48.888;9.226;2023-05-08T10:21:48;160229.03;;;19.83;78.94
7940;BME280;4015;48.888;9.226;2023-05-08T10:24:34;160302.28;;;20.12;78.08
7940;BME280;4015;48.888;9.226;2023-05-08T10:27:27;160290.69;;;20.08;77.59
7940;BME280;4015;48.888;9.226;2023-05-08T10:29:59;160347.25;;;20.30;77.27
7940;BME280;4015;48.888;9.226;2023-05-08T10:32:27;160347.25;;;20.30;78.98
7940;BME280;4015;48.888;9.226;2023-05-08T10:34:58;160366.50;;;20.38;79.71
7940;BME280;4015;48.888;9.226;2023-05-08T10:37:24;160394.84;;;20.49;77.41
7940;BME280;4015;48.888;9.226;2023-05-08T10:39:50;160474.50;;;20.81;78.28
7940;BME280;4015;48.888;9.226;2023-05-08T10:42:18;160522.06;;;20.99;76.92
7940;BME280;4015;48.888;9.226;2023-05-08T10:44:44;160538.75;;;21.06;76.83
7940;BME280;4015;48.888;9.226;2023-05-08T10:47:25;160565.72;;;21.17;76.83
7940;BME280;4015;48.888;9.226;2023-05-08T10:52:49;160649.34;;;21.50;73.08
7940;BME280;4015;48.888;9.226;2023-05-08T10:55:24;160744.50;;;21.88;73.12
7940;BME280;4015;48.888;9.226;2023-05-08T11:03:22;160777.94;;;22.01;70.33
7940;BME280;4015;48.888;9.226;2023-05-08T11:05:51;160913.00;;;22.54;70.07
7940;BME280;4015;48.888;9.226;2023-05-08T11:08:19;160913.00;;;22.54;68.60
7940;BME280;4015;48.888;9.226;2023-05-08T11:13:31;160885.97;;;22.44;68.26
7940;BME280;4015;48.888;9.226;2023-05-08T11:15:58;160873.13;;;22.39;68.15
7940;BME280;4015;48.888;9.226;2023-05-08T11:18:23;160848.69;;;22.29;68.21
7940;BME280;4015;48.888;9.226;2023-05-08T11:23:39;160853.81;;;22.31;67.35
7940;BME280;4015;48.888;9.226;2023-05-08T11:26:14;160888.56;;;22.45;69.11
7940;BME280;4015;48.888;9.226;2023-05-08T11:31:18;161036.53;;;23.03;66.12
7940;BME280;4015;48.888;9.226;2023-05-08T11:33:44;160931.00;;;22.61;67.64
7940;BME280;4015;48.888;9.226;2023-05-08T11:36:16;160906.56;;;22.52;68.46
7940;BME280;4015;48.888;9.226;2023-05-08T11:39:04;161088.00;;;23.24;65.20
7940;BME280;4015;48.888;9.226;2023-05-08T11:41:30;160996.63;;;22.87;66.72
7940;BME280;4015;48.888;9.226;2023-05-08T11:46:49;161059.69;;;23.12;68.16
7940;BME280;4015;48.888;9.226;2023-05-08T11:49:17;161040.38;;;23.05;66.65
7940;BME280;4015;48.888;9.226;2023-05-08T11:51:45;161067.41;;;23.15;65.56
7940;BME280;4015;48.888;9.226;2023-05-08T11:54:17;161071.28;;;23.17;68.71
7940;BME280;4015;48.888;9.226;2023-05-08T11:56:51;161158.78;;;23.52;67.17
7940;BME280;4015;48.888;9.226;2023-05-08T11:59:17;161408.56;;;24.51;66.07
7940;BME280;4015;48.888;9.226;2023-05-08T12:01:43;161604.41;;;25.28;63.62
7940;BME280;4015;48.888;9.226;2023-05-08T12:04:11;161574.78;;;25.16;63.82
7940;BME280;4015;48.888;9.226;2023-05-08T12:06:38;161364.78;;;24.33;64.04
7940;BME280;4015;48.888;9.226;2023-05-08T12:11:34;160964.44;;;22.75;68.54
7940;BME280;4015;48.888;9.226;2023-05-08T12:13:59;160861.53;;;22.34;69.87
7940;BME280;4015;48.888;9.226;2023-05-08T12:16:25;160934.88;;;22.63;68.40
7940;BME280;4015;48.888;9.226;2023-05-08T12:18:51;160856.41;;;22.32;69.87
7940;BME280;4015;48.888;9.226;2023-05-08T12:21:17;160820.38;;;22.18;70.28
7940;BME280;4015;48.888;9.226;2023-05-08T12:23:43;160712.34;;;21.75;69.33
7940;BME280;4015;48.888;9.226;2023-05-08T12:26:09;160789.47;;;22.05;72.04
7940;BME280;4015;48.888;9.226;2023-05-08T12:28:37;160718.75;;;21.77;71.95
7940;BME280;4015;48.888;9.226;2023-05-08T12:31:02;160603.06;;;21.32;73.14
7940;BME280;4015;48.888;9.226;2023-05-08T12:33:28;160592.72;;;21.27;74.91
7940;BME280;4015;48.888;9.226;2023-05-08T12:35:55;160646.75;;;21.49;73.47
7940;BME280;4015;48.888;9.226;2023-05-08T12:38:25;160496.34;;;20.89;73.74
7940;BME280;4015;48.888;9.226;2023-05-08T12:40:51;160403.81;;;20.53;75.84
7940;BME280;4015;48.888;9.226;2023-05-08T12:43:32;160411.53;;;20.56;77.49
7940;BME280;4015;48.888;9.226;2023-05-08T12:45:58;160335.66;;;20.26;77.14
7940;BME280;4015;48.888;9.226;2023-05-08T12:48:24;160318.97;;;20.19;76.80
7940;BME280;4015;48.888;9.226;2023-05-08T12:50:49;160331.84;;;20.24;76.20
7940;BME280;4015;48.888;9.226;2023-05-08T12:53:18;160316.41;;;20.18;75.76
7940;BME280;4015;48.888;9.226;2023-05-08T12:55:59;160375.47;;;20.41;76.16
7940;BME280;4015;48.888;9.226;2023-05-08T12:58:33;160366.50;;;20.38;77.16
7940;BME280;4015;48.888;9.226;2023-05-08T13:01:09;160311.25;;;20.16;77.49
7940;BME280;4015;48.888;9.226;2023-05-08T13:03:37;160358.78;;;20.35;76.67
7940;BME280;4015;48.888;9.226;2023-05-08T13:06:04;160277.84;;;20.03;77.35
7940;BME280;4015;48.888;9.226;2023-05-08T13:08:31;160309.97;;;20.15;78.27
7940;BME280;4015;48.888;9.226;2023-05-08T13:10:57;160304.84;;;20.13;76.85
7940;BME280;4015;48.888;9.226;2023-05-08T13:13:25;160345.91;;;20.30;76.71
7940;BME280;4015;48.888;9.226;2023-05-08T13:15:52;160262.44;;;19.97;77.39
7940;BME280;4015;48.888;9.226;2023-05-08T13:18:19;160232.88;;;19.85;78.09
7940;BME280;4015;48.888;9.226;2023-05-08T13:20:45;160229.03;;;19.83;76.89
7940;BME280;4015;48.888;9.226;2023-05-08T13:23:10;160227.75;;;19.83;77.56
7940;BME280;4015;48.888;9.226;2023-05-08T13:25:36;160216.19;;;19.78;77.25
7940;BME280;4015;48.888;9.226;2023-05-08T13:28:03;160225.19;;;19.82;77.97
7940;BME280;4015;48.888;9.226;2023-05-08T13:30:28;160247.00;;;19.90;77.92
7940;BME280;4015;48.888;9.226;2023-05-08T13:32:54;160212.34;;;19.77;78.18
7940;BME280;4015;48.888;9.226;2023-05-08T13:35:20;160189.25;;;19.67;79.04
7940;BME280;4015;48.888;9.226;2023-05-08T13:37:45;160123.66;;;19.41;79.14
7940;BME280;4015;48.888;9.226;2023-05-08T13:40:12;160141.69;;;19.49;78.65
7940;BME280;4015;48.888;9.226;2023-05-08T13:42:37;160090.28;;;19.28;79.27
7940;BME280;4015;48.888;9.226;2023-05-08T13:45:04;160106.97;;;19.35;80.07
7940;BME280;4015;48.888;9.226;2023-05-08T13:47:29;160123.66;;;19.41;80.38
7940;BME280;4015;48.888;9.226;2023-05-08T13:49:54;160141.69;;;19.49;78.89
7940;BME280;4015;48.888;9.226;2023-05-08T13:52:20;160115.97;;;19.38;79.99
7940;BME280;4015;48.888;9.226;2023-05-08T13:54:45;160081.31;;;19.25;80.33
7940;BME280;4015;48.888;9.226;2023-05-08T13:57:11;160133.97;;;19.46;80.24